Time;durP1;ratioP1;P1;durP2;ratioP2;P2;SDS_P1;SDS_P2;PMS_P1;PMS_P2;Temp;Humidity;BMP_temperature;BMP_pressure;BME280_temperature;BME280_humidity;BME280_pressure;Samples;Min_cycle;Max_cycle;Signal;HPM_P1;HPM_P2
2023/09/03 00:01:18;;;;;;;11.90;9.83;;;;;;;15.75;88.12;101735.69;4933217;28;20221;-72
2023/09/03 00:03:44;;;;;;;12.10;9.57;;;;;;;15.75;87.83;101730.34;4932682;28;21357;-73
2023/09/03 00:06:11;;;;;;;9.73;8.73;;;;;;;15.75;87.97;101726.91;4930420;28;20236;-73
2023/09/03 00:08:37;;;;;;;13.50;9.40;;;;;;;15.74;88.07;101734.09;4932328;28;20216;-73
2023/09/03 00:11:05;;;;;;;10.43;9.07;;;;;;;15.73;87.59;101729.13;4929540;28;20220;-73
2023/09/03 00:13:31;;;;;;;11.30;8.10;;;;;;;15.73;87.63;101732.56;4934638;28;20557;-73
2023/09/03 00:15:57;;;;;;;11.37;10.17;;;;;;;15.73;87.44;101729.13;4928105;28;20241;-73
2023/09/03 00:18:24;;;;;;;11.23;9.60;;;;;;;15.72;87.80;101722.22;4928565;28;20814;-73
2023/09/03 00:20:57;;;;;;;8.80;7.90;;;;;;;15.71;87.55;101732.13;4931426;28;20937;-72
2023/09/03 00:23:24;;;;;;;10.20;8.93;;;;;;;15.73;87.89;101723.81;4931801;28;20264;-73
2023/09/03 00:25:50;;;;;;;9.60;8.27;;;;;;;15.72;87.97;101730.22;4932936;28;20240;-73
2023/09/03 00:28:18;;;;;;;10.40;9.30;;;;;;;15.70;87.96;101721.78;4934286;28;20578;-73
2023/09/03 00:30:44;;;;;;;12.53;9.60;;;;;;;15.69;87.65;101731.66;4935471;28;20738;-73
2023/09/03 00:33:11;;;;;;;9.10;8.20;;;;;;;15.69;87.56;101730.91;4929987;28;20211;-72
2023/09/03 00:35:40;;;;;;;9.53;8.50;;;;;;;15.67;88.10;101727.78;4931540;28;20842;-72
2023/09/03 00:38:07;;;;;;;11.47;9.50;;;;;;;15.66;87.48;101727.00;4949219;28;20567;-73
2023/09/03 00:40:37;;;;;;;10.17;8.60;;;;;;;15.64;87.18;101726.56;4938306;28;20224;-72
2023/09/03 00:43:04;;;;;;;12.97;8.70;;;;;;;15.65;87.46;101719.34;4934828;28;20619;-72
2023/09/03 00:45:32;;;;;;;10.73;9.43;;;;;;;15.63;87.55;101710.94;4937111;28;20227;-72
2023/09/03 00:47:58;;;;;;;10.00;8.90;;;;;;;15.62;87.93;101706.72;4948588;28;20946;-72
2023/09/03 00:50:24;;;;;;;10.97;9.03;;;;;;;15.60;88.08;101701.72;4950502;28;20213;-73
2023/09/03 00:52:51;;;;;;;10.87;9.53;;;;;;;15.59;88.25;101713.47;4937749;28;20676;-72
2023/09/03 00:55:17;;;;;;;9.93;8.93;;;;;;;15.58;88.53;101721.78;4937034;28;20223;-72
2023/09/03 00:57:44;;;;;;;10.83;8.83;;;;;;;15.57;88.58;101714.91;4934934;28;20355;-72
2023/09/03 01:00:12;;;;;;;10.50;9.40;;;;;;;15.57;88.50;101722.91;4947572;28;20875;-73
2023/09/03 01:02:44;;;;;;;11.57;9.93;;;;;;;15.57;88.23;101720.25;4936359;28;20216;-73
2023/09/03 01:05:10;;;;;;;10.37;8.23;;;;;;;15.58;88.47;101724.44;4935488;28;20211;-73
2023/09/03 01:07:37;;;;;;;11.93;9.77;;;;;;;15.58;88.59;101722.56;4938773;28;21220;-73
2023/09/03 01:10:04;;;;;;;10.30;9.30;;;;;;;15.57;88.25;101718.34;4935269;28;20601;-73
2023/09/03 01:12:38;;;;;;;11.07;9.57;;;;;;;15.58;88.39;101713.81;4934630;28;20217;-73
2023/09/03 01:15:10;;;;;;;11.33;9.27;;;;;;;15.57;88.34;101714.91;4935576;28;21380;-72
2023/09/03 01:17:46;;;;;;;9.43;8.50;;;;;;;15.57;88.73;101718.34;4949792;28;20221;-73
2023/09/03 01:20:17;;;;;;;9.27;8.30;;;;;;;15.56;88.48;101718.66;4934159;28;20286;-72
2023/09/03 01:23:12;;;;;;;9.17;8.27;;;;;;;15.55;88.56;101727.75;4934743;28;20406;-73
2023/09/03 01:25:55;;;;;;;9.63;8.53;;;;;;;15.54;88.84;101729.66;4952185;28;21239;-72
2023/09/03 01:28:24;;;;;;;9.97;8.03;;;;;;;15.52;89.10;101729.19;4937447;28;20606;-72
2023/09/03 01:30:55;;;;;;;9.17;8.27;;;;;;;15.50;88.80;101731.44;4935877;28;20232;-72
2023/09/03 01:33:22;;;;;;;8.97;8.07;;;;;;;15.51;88.91;101732.19;4935275;28;20213;-73
2023/09/03 01:35:49;;;;;;;10.53;8.90;;;;;;;15.50;89.21;101727.97;4935729;28;20235;-72
2023/09/03 01:38:16;;;;;;;10.37;8.67;;;;;;;15.47;88.93;101724.09;4935087;28;20216;-73
2023/09/03 01:40:42;;;;;;;9.53;8.53;;;;;;;15.48;88.92;101722.22;4952566;28;20213;-72
2023/09/03 01:43:09;;;;;;;9.40;8.50;;;;;;;15.47;89.26;101726.00;4948329;28;20213;-73
2023/09/03 01:45:45;;;;;;;10.60;8.93;;;;;;;15.47;89.23;101728.66;4936121;28;20229;-73
2023/09/03 01:48:19;;;;;;;11.43;9.40;;;;;;;15.48;88.91;101736.28;4933668;28;20219;-72
2023/09/03 01:50:56;;;;;;;12.97;10.60;;;;;;;15.48;88.86;101736.28;4933125;28;20707;-72
2023/09/03 01:53:28;;;;;;;11.60;10.40;;;;;;;15.48;88.74;101736.28;4935973;28;20843;-72
2023/09/03 01:55:59;;;;;;;13.40;9.23;;;;;;;15.50;88.83;101733.31;4937533;28;20240;-73
2023/09/03 01:58:30;;;;;;;11.03;9.87;;;;;;;15.50;89.22;101734.09;4950013;28;20219;-72
2023/09/03 02:01:00;;;;;;;10.50;9.50;;;;;;;15.51;89.21;101738.31;4932216;28;20722;-73
2023/09/03 02:03:29;;;;;;;13.03;9.53;;;;;;;15.52;89.36;101742.50;4931630;28;20204;-73
2023/09/03 02:05:55;;;;;;;11.77;9.10;;;;;;;15.54;89.91;101742.19;4933789;28;20240;-72
2023/09/03 02:08:22;;;;;;;10.83;9.73;;;;;;;15.52;89.47;101731.88;4931156;28;20709;-72
2023/09/03 02:10:48;;;;;;;10.43;9.30;;;;;;;15.51;89.19;101724.19;4936199;28;20205;-72
2023/09/03 02:13:20;;;;;;;9.00;8.10;;;;;;;15.49;88.93;101715.78;4932666;28;20300;-72
2023/09/03 02:15:47;;;;;;;9.87;7.73;;;;;;;15.48;88.93;101714.22;4946918;28;21578;-73
2023/09/03 02:18:16;;;;;;;9.60;7.83;;;;;;;15.46;89.31;101713.75;4946765;28;21974;-73
2023/09/03 02:20:42;;;;;;;9.40;8.40;;;;;;;15.43;89.03;101709.88;4932653;28;20223;-72
2023/09/03 02:23:08;;;;;;;9.93;8.93;;;;;;;15.41;89.21;101712.09;4931190;28;20228;-72
2023/09/03 02:25:35;;;;;;;10.90;7.90;;;;;;;15.38;89.07;101715.41;4946894;28;20237;-72
2023/09/03 02:28:01;;;;;;;10.43;8.23;;;;;;;15.36;89.14;101719.53;4927310;28;20220;-72
2023/09/03 02:30:28;;;;;;;9.90;7.87;;;;;;;15.34;89.03;101722.53;4947702;28;20216;-72
2023/09/03 02:32:54;;;;;;;8.93;8.03;;;;;;;15.30;88.96;101720.81;4935101;28;20222;-72
2023/09/03 02:35:22;;;;;;;9.80;8.07;;;;;;;15.28;89.10;101723.03;4946449;28;20920;-72
2023/09/03 02:37:49;;;;;;;10.07;7.47;;;;;;;15.25;89.01;101732.44;4950273;28;20585;-72
2023/09/03 02:40:16;;;;;;;9.83;8.83;;;;;;;15.23;88.70;101728.56;4945897;28;20925;-72
2023/09/03 02:42:42;;;;;;;9.70;8.70;;;;;;;15.18;88.86;101721.56;4929043;28;20216;-72
2023/09/03 02:45:09;;;;;;;11.63;8.60;;;;;;;15.16;89.03;101723.00;4948540;28;21111;-72
2023/09/03 02:47:36;;;;;;;11.07;8.53;;;;;;;15.13;88.97;101715.66;4930727;28;20210;-72
2023/09/03 02:50:02;;;;;;;10.70;8.50;;;;;;;15.09;88.98;101723.53;4933777;28;20219;-72
2023/09/03 02:52:30;;;;;;;9.03;8.13;;;;;;;15.06;89.10;101718.84;4946691;28;20208;-72
2023/09/03 02:54:57;;;;;;;10.23;8.57;;;;;;;15.04;89.09;101709.63;4947589;28;20300;-72
2023/09/03 02:57:23;;;;;;;8.70;7.80;;;;;;;15.01;89.24;101713.72;4933094;28;20225;-72
2023/09/03 02:59:52;;;;;;;9.53;8.23;;;;;;;15.00;89.10;101708.75;4964477;23;20240;-75
2023/09/03 03:02:18;;;;;;;10.20;8.63;;;;;;;14.97;89.03;101704.88;4982333;28;20749;-74
2023/09/03 03:04:47;;;;;;;11.73;9.90;;;;;;;14.96;89.38;101705.19;4981784;28;20201;-75
2023/09/03 03:07:14;;;;;;;12.50;9.80;;;;;;;14.93;89.32;101701.31;4981086;28;20229;-75
2023/09/03 03:09:42;;;;;;;11.60;10.40;;;;;;;14.90;89.14;101704.59;4977534;28;20232;-75
2023/09/03 03:12:08;;;;;;;11.80;10.03;;;;;;;14.89;89.30;101712.91;4970406;28;20216;-75
2023/09/03 03:14:34;;;;;;;10.07;9.03;;;;;;;14.88;89.77;101719.31;4977711;28;20220;-75
2023/09/03 03:17:01;;;;;;;12.07;10.80;;;;;;;14.88;89.68;101717.47;4992216;28;20287;-75
2023/09/03 03:19:28;;;;;;;13.93;10.50;;;;;;;14.87;89.35;101713.25;4980919;28;20217;-74
2023/09/03 03:21:54;;;;;;;13.10;11.70;;;;;;;14.89;89.29;101718.22;4984216;28;20240;-74
2023/09/03 03:24:21;;;;;;;12.23;10.87;;;;;;;14.90;90.08;101715.22;4978567;28;20213;-75
2023/09/03 03:26:49;;;;;;;13.20;10.90;;;;;;;14.93;90.17;101719.13;4979783;28;20540;-75
2023/09/03 03:29:19;;;;;;;12.20;10.90;;;;;;;14.95;90.51;101711.63;4983406;28;20209;-76
2023/09/03 03:31:50;;;;;;;13.40;11.73;;;;;;;14.97;90.56;101707.53;4978677;28;20207;-75
2023/09/03 03:34:17;;;;;;;13.73;11.73;;;;;;;15.00;90.76;101709.50;4979096;28;20208;-75
2023/09/03 03:36:44;;;;;;;14.17;11.60;;;;;;;15.02;90.71;101706.53;4978084;28;20244;-74
2023/09/03 03:39:11;;;;;;;11.40;10.00;;;;;;;15.01;90.52;101705.75;4978957;28;20341;-75
2023/09/03 03:41:38;;;;;;;13.53;11.03;;;;;;;15.02;90.15;101699.34;4977831;28;20234;-75
2023/09/03 03:44:08;;;;;;;10.63;9.53;;;;;;;15.02;90.51;101699.34;4979508;28;20232;-75
2023/09/03 03:46:34;;;;;;;12.03;10.70;;;;;;;15.01;90.17;101704.97;4976582;28;20209;-76
2023/09/03 03:49:01;;;;;;;11.17;10.00;;;;;;;15.00;90.16;101709.50;4977316;28;20213;-75
2023/09/03 03:51:27;;;;;;;14.67;12.17;;;;;;;14.97;90.15;101712.06;4974004;28;20263;-75
2023/09/03 03:53:59;;;;;;;11.00;9.87;;;;;;;14.97;90.42;101720.81;4976626;28;20758;-75
2023/09/03 03:56:26;;;;;;;15.43;10.57;;;;;;;14.97;90.16;101720.03;4976431;28;20243;-74
2023/09/03 03:58:53;;;;;;;13.07;11.73;;;;;;;14.97;90.34;101718.16;4977150;28;20617;-75
2023/09/03 04:01:23;;;;;;;14.20;11.37;;;;;;;14.97;90.23;101717.38;4974632;28;20228;-75
2023/09/03 04:03:51;;;;;;;13.07;11.77;;;;;;;14.94;90.61;101710.81;4973616;28;20236;-74
2023/09/03 04:06:18;;;;;;;13.80;11.13;;;;;;;14.93;90.64;101703.16;4973661;28;20576;-75
2023/09/03 04:08:45;;;;;;;11.60;9.63;;;;;;;14.90;90.35;101696.63;4978534;28;20221;-75
2023/09/03 04:11:12;;;;;;;12.43;11.20;;;;;;;14.89;90.36;101707.56;4976759;28;20300;-75
2023/09/03 04:13:40;;;;;;;15.13;11.77;;;;;;;14.87;90.51;101704.47;4969631;28;20216;-75
2023/09/03 04:16:11;;;;;;;13.47;11.77;;;;;;;14.87;90.40;101715.13;4980740;28;20660;-76
2023/09/03 04:18:39;;;;;;;12.77;10.93;;;;;;;14.85;90.36;101717.34;4975150;28;20231;-75
2023/09/03 04:21:05;;;;;;;14.43;11.43;;;;;;;14.84;90.33;101721.06;4975923;28;20292;-74
2023/09/03 04:23:33;;;;;;;12.60;11.07;;;;;;;14.82;90.51;101724.09;4976446;28;20213;-75
2023/09/03 04:26:02;;;;;;;12.60;11.30;;;;;;;14.81;90.34;101725.16;4969329;28;20211;-74
2023/09/03 04:28:31;;;;;;;12.07;10.77;;;;;;;14.79;90.19;101726.59;4976226;28;20322;-75
2023/09/03 04:30:59;;;;;;;11.77;10.47;;;;;;;14.76;90.27;101722.69;4978073;28;20300;-75
2023/09/03 04:33:28;;;;;;;10.93;9.83;;;;;;;14.75;90.52;101729.13;4977443;28;20201;-76
2023/09/03 04:35:59;;;;;;;11.80;10.57;;;;;;;14.73;90.50;101736.66;4977209;28;20233;-75
2023/09/03 04:38:27;;;;;;;13.10;10.17;;;;;;;14.71;90.30;101749.50;4978024;28;20318;-75
2023/09/03 04:40:54;;;;;;;14.33;10.73;;;;;;;14.69;90.68;101754.34;4978876;28;20194;-75
2023/09/03 04:43:26;;;;;;;12.33;10.90;;;;;;;14.67;90.93;101761.88;4977530;28;20658;-76
2023/09/03 04:45:56;;;;;;;10.70;9.53;;;;;;;14.66;90.41;101765.66;4991192;28;20440;-75
2023/09/03 04:48:23;;;;;;;10.47;9.33;;;;;;;14.65;90.83;101758.00;4993095;28;20240;-75
2023/09/03 04:50:49;;;;;;;11.80;10.53;;;;;;;14.63;91.01;101762.84;4976610;28;20215;-75
2023/09/03 04:53:18;;;;;;;13.50;11.47;;;;;;;14.62;91.10;101767.41;4976642;28;20197;-74
2023/09/03 04:55:45;;;;;;;11.73;10.40;;;;;;;14.61;91.32;101778.34;4969143;28;20213;-75
2023/09/03 04:58:12;;;;;;;11.40;10.20;;;;;;;14.59;90.92;101788.53;4978844;28;20239;-74
2023/09/03 05:00:38;;;;;;;10.67;9.60;;;;;;;14.59;91.43;101772.59;4977959;28;20201;-75
2023/09/03 05:03:07;;;;;;;11.17;10.03;;;;;;;14.57;90.92;101777.44;4976646;28;20223;-75
2023/09/03 05:05:46;;;;;;;12.13;10.77;;;;;;;14.57;91.27;101775.56;4978307;28;20290;-75
2023/09/03 05:08:13;;;;;;;14.90;10.80;;;;;;;14.59;91.48;101770.69;4968667;28;20230;-75
2023/09/03 05:10:44;;;;;;;13.33;11.33;;;;;;;14.59;91.26;101767.28;4968945;28;20222;-75
2023/09/03 05:13:11;;;;;;;13.03;11.63;;;;;;;14.60;91.86;101774.91;4978784;28;20222;-75
2023/09/03 05:15:38;;;;;;;15.53;11.47;;;;;;;14.62;91.88;101775.38;4980263;28;20219;-75
2023/09/03 05:18:05;;;;;;;14.37;11.83;;;;;;;14.65;91.99;101780.03;4977614;28;20219;-75
2023/09/03 05:20:37;;;;;;;16.83;12.53;;;;;;;14.68;92.06;101784.72;4971664;28;20216;-75
2023/09/03 05:23:06;;;;;;;15.23;12.57;;;;;;;14.71;91.96;101791.25;4979516;28;20201;-75
2023/09/03 05:25:38;;;;;;;14.37;11.97;;;;;;;14.74;92.04;101803.94;4979724;28;20308;-75
2023/09/03 05:28:06;;;;;;;15.90;13.73;;;;;;;14.78;92.73;101802.94;4979769;28;20235;-75
2023/09/03 05:30:34;;;;;;;16.40;13.40;;;;;;;14.81;92.33;101812.16;4976179;28;20509;-75
2023/09/03 05:33:00;;;;;;;17.33;14.20;;;;;;;14.84;92.36;101817.59;4981472;28;20212;-76
2023/09/03 05:35:29;;;;;;;17.70;13.70;;;;;;;14.88;93.08;101837.13;4979010;28;20669;-75
2023/09/03 05:37:55;;;;;;;14.33;12.30;;;;;;;14.91;92.54;101825.06;4978483;28;20352;-74
2023/09/03 05:40:21;;;;;;;16.80;14.10;;;;;;;14.94;92.92;101835.03;4978815;28;20220;-76
2023/09/03 05:42:49;;;;;;;13.27;11.87;;;;;;;14.97;92.61;101834.41;4980341;28;20251;-75
2023/09/03 05:45:17;;;;;;;16.90;13.00;;;;;;;14.99;92.32;101814.38;4978908;28;20218;-76
2023/09/03 05:47:43;;;;;;;16.17;13.80;;;;;;;15.01;92.38;101822.78;4992684;28;20318;-74
2023/09/03 05:50:10;;;;;;;15.83;14.13;;;;;;;15.03;92.27;101819.81;4977734;28;20771;-75
2023/09/03 05:52:36;;;;;;;15.33;13.63;;;;;;;15.05;92.45;101820.28;4995006;28;20560;-74
2023/09/03 05:55:04;;;;;;;15.40;13.40;;;;;;;15.08;92.15;101814.28;4979058;28;20676;-75
2023/09/03 05:57:31;;;;;;;15.00;13.40;;;;;;;15.10;92.63;101812.88;4993641;28;20236;-75
2023/09/03 05:59:59;;;;;;;17.00;14.63;;;;;;;15.15;92.71;101820.66;4981038;28;20274;-75
2023/09/03 06:02:27;;;;;;;17.67;15.37;;;;;;;15.20;92.38;101812.47;4976515;28;20215;-73
2023/09/03 06:04:53;;;;;;;16.00;13.70;;;;;;;15.26;92.41;101816.47;4977753;28;20292;-75
2023/09/03 06:07:19;;;;;;;23.70;17.60;;;;;;;15.32;92.29;101825.81;4996299;28;20220;-76
2023/09/03 06:09:46;;;;;;;20.23;17.73;;;;;;;15.41;92.77;101823.91;4982846;28;20211;-74
2023/09/03 06:12:12;;;;;;;19.73;16.70;;;;;;;15.49;92.91;101819.59;4982463;28;20194;-75
2023/09/03 06:14:39;;;;;;;18.87;16.57;;;;;;;15.55;92.65;101828.94;4983215;28;20283;-75
2023/09/03 06:17:05;;;;;;;24.93;17.77;;;;;;;15.64;92.99;101834.97;4981189;28;20864;-74
2023/09/03 06:19:33;;;;;;;20.67;16.80;;;;;;;15.72;92.95;101845.53;4979747;28;20210;-75
2023/09/03 06:21:59;;;;;;;21.37;17.43;;;;;;;15.83;93.06;101846.66;4980003;28;20229;-76
2023/09/03 06:24:27;;;;;;;21.60;18.07;;;;;;;15.95;92.72;101861.91;4979043;28;20201;-75
2023/09/03 06:26:54;;;;;;;22.87;18.43;;;;;;;16.07;92.98;101868.03;4979749;28;20233;-75
2023/09/03 06:29:20;;;;;;;21.37;17.90;;;;;;;16.18;92.71;101871.81;4977851;28;20206;-75
2023/09/03 06:31:46;;;;;;;18.70;16.20;;;;;;;16.28;92.35;101867.94;4980890;28;20201;-75
2023/09/03 06:34:13;;;;;;;17.57;15.23;;;;;;;16.40;92.15;101879.41;4980099;28;21069;-75
2023/09/03 06:36:40;;;;;;;16.93;15.03;;;;;;;16.51;92.01;101882.44;4978909;28;20229;-75
2023/09/03 06:39:07;;;;;;;17.50;14.80;;;;;;;16.62;91.85;101880.88;4979006;28;20207;-75
2023/09/03 06:41:38;;;;;;;15.83;13.63;;;;;;;16.73;91.59;101888.09;4979012;28;20577;-75
2023/09/03 06:44:13;;;;;;;15.03;13.53;;;;;;;16.87;91.27;101893.09;4980358;28;20208;-76
2023/09/03 06:46:39;;;;;;;14.57;11.93;;;;;;;17.01;90.80;101904.94;4973837;28;20304;-74
2023/09/03 06:49:05;;;;;;;13.70;12.23;;;;;;;17.12;90.13;101900.69;4974427;28;20208;-74
2023/09/03 06:51:32;;;;;;;12.63;11.37;;;;;;;17.28;90.04;101903.47;4974237;28;20231;-74
2023/09/03 06:54:00;;;;;;;11.67;10.57;;;;;;;17.40;89.43;101901.56;4973402;28;20205;-74
2023/09/03 06:56:26;;;;;;;12.37;10.87;;;;;;;17.51;88.36;101904.50;4971940;28;20217;-75
2023/09/03 06:58:53;;;;;;;11.40;10.20;;;;;;;17.60;87.72;101891.81;4968392;28;20287;-74
2023/09/03 07:01:19;;;;;;;10.73;9.60;;;;;;;17.65;86.64;101888.88;4967438;28;20700;-75
2023/09/03 07:03:46;;;;;;;13.50;10.70;;;;;;;17.69;86.30;101887.09;4980319;28;20847;-75
2023/09/03 07:06:12;;;;;;;10.63;9.60;;;;;;;17.70;85.62;101885.97;4968710;28;21496;-75
2023/09/03 07:08:38;;;;;;;11.20;9.70;;;;;;;17.74;85.72;101892.19;4979837;28;20731;-75
2023/09/03 07:11:06;;;;;;;12.70;10.17;;;;;;;17.78;85.83;101890.38;4970357;28;20719;-74
2023/09/03 07:13:33;;;;;;;14.70;10.87;;;;;;;17.83;85.09;101893.59;4972128;28;20559;-73
2023/09/03 07:16:04;;;;;;;12.77;10.17;;;;;;;17.93;84.76;101892.28;4969012;28;20221;-74
2023/09/03 07:18:30;;;;;;;11.63;10.50;;;;;;;18.06;83.94;101893.78;4968561;28;20230;-73
2023/09/03 07:21:04;;;;;;;10.73;9.63;;;;;;;18.25;83.16;101891.19;4969310;28;20691;-73
2023/09/03 07:23:31;;;;;;;10.10;8.93;;;;;;;18.40;82.57;101893.91;4968830;28;20653;-74
2023/09/03 07:26:02;;;;;;;12.00;8.07;;;;;;;18.55;82.18;101906.50;4967308;28;20209;-73
2023/09/03 07:28:29;;;;;;;9.27;8.30;;;;;;;18.64;80.93;101906.31;4964965;28;20301;-74
2023/09/03 07:30:56;;;;;;;8.90;8.10;;;;;;;18.72;79.30;101898.09;4965999;28;20205;-74
2023/09/03 07:33:22;;;;;;;10.87;7.53;;;;;;;18.80;80.44;101913.22;4966424;28;20209;-73
2023/09/03 07:35:48;;;;;;;9.73;7.43;;;;;;;18.89;78.85;101913.78;4965940;28;20213;-74
2023/09/03 07:38:15;;;;;;;7.67;6.87;;;;;;;19.01;79.77;101926.28;4967759;28;20226;-73
2023/09/03 07:40:41;;;;;;;7.23;6.53;;;;;;;19.12;78.23;101924.59;4966548;28;20197;-73
2023/09/03 07:43:07;;;;;;;7.67;6.80;;;;;;;19.24;78.33;101927.22;4966882;28;20213;-75
2023/09/03 07:45:35;;;;;;;7.23;6.63;;;;;;;19.38;77.66;101932.84;4965066;28;20205;-73
2023/09/03 07:48:01;;;;;;;9.73;6.33;;;;;;;19.58;75.93;101942.44;4958838;28;20722;-73
2023/09/03 07:50:31;;;;;;;6.57;5.93;;;;;;;19.72;75.04;101932.00;4962787;28;20216;-75
2023/09/03 07:52:58;;;;;;;8.50;6.60;;;;;;;19.86;75.57;101937.66;4963060;28;20216;-74
2023/09/03 07:55:24;;;;;;;8.93;5.73;;;;;;;20.03;75.47;101945.25;4961956;28;20205;-73
2023/09/03 07:57:51;;;;;;;9.00;6.00;;;;;;;20.16;73.38;101942.06;4963389;28;20229;-73
2023/09/03 08:00:18;;;;;;;7.53;5.87;;;;;;;20.29;74.09;101937.28;4962125;28;20216;-75
2023/09/03 08:02:45;;;;;;;6.40;5.50;;;;;;;20.38;71.45;101935.91;4964654;28;20616;-75
2023/09/03 08:05:12;;;;;;;6.40;4.60;;;;;;;20.43;74.12;101942.91;4964106;28;20220;-74
2023/09/03 08:07:38;;;;;;;5.67;4.83;;;;;;;20.48;70.63;101950.66;4964125;28;20311;-73
2023/09/03 08:10:06;;;;;;;9.23;5.10;;;;;;;20.55;70.06;101946.16;4960914;28;20303;-73
2023/09/03 08:12:32;;;;;;;5.30;4.73;;;;;;;20.59;70.68;101957.72;4964094;28;20889;-74
2023/09/03 08:14:59;;;;;;;6.17;4.73;;;;;;;20.64;69.13;101959.34;4962833;28;20232;-75
2023/09/03 08:17:26;;;;;;;4.90;4.33;;;;;;;20.70;68.61;101960.59;4960927;28;20226;-74
2023/09/03 08:19:54;;;;;;;8.80;4.10;;;;;;;20.74;69.19;101972.94;4961645;28;20224;-73
2023/09/03 08:22:20;;;;;;;7.07;4.23;;;;;;;20.77;70.25;101968.75;4958374;28;20217;-73
2023/09/03 08:24:46;;;;;;;4.57;3.95;;;;;;;20.78;68.47;101968.38;4960101;28;20367;-73
2023/09/03 08:27:14;;;;;;;5.10;3.77;;;;;;;20.81;68.73;101974.94;4960035;28;20216;-73
2023/09/03 08:29:40;;;;;;;4.23;3.83;;;;;;;20.83;67.71;101975.34;4958717;28;20206;-74
2023/09/03 08:32:07;;;;;;;4.25;3.85;;;;;;;20.87;68.14;101978.88;4959786;28;20209;-73
2023/09/03 08:34:33;;;;;;;4.50;3.73;;;;;;;20.85;68.10;101967.72;4958696;28;20209;-75
2023/09/03 08:37:01;;;;;;;4.00;3.60;;;;;;;20.83;66.45;101972.66;4954932;28;20237;-74
2023/09/03 08:39:27;;;;;;;3.50;3.20;;;;;;;20.86;68.48;101978.09;4959804;28;20216;-74
2023/09/03 08:41:55;;;;;;;4.93;4.00;;;;;;;20.80;65.63;101981.47;4955767;28;20216;-76
2023/09/03 08:44:27;;;;;;;4.93;3.95;;;;;;;20.74;64.55;101980.97;4955834;28;20209;-76
2023/09/03 08:46:59;;;;;;;4.33;3.73;;;;;;;20.71;65.47;101997.81;4959346;28;20229;-76
2023/09/03 08:49:26;;;;;;;5.37;4.23;;;;;;;20.63;66.65;101998.03;4962286;28;21194;-76
2023/09/03 08:51:53;;;;;;;5.77;4.40;;;;;;;20.57;65.90;102002.16;4964103;28;20208;-76
2023/09/03 08:54:21;;;;;;;5.87;4.23;;;;;;;20.54;67.97;102016.31;4963272;28;20209;-76
2023/09/03 08:56:49;;;;;;;5.20;4.57;;;;;;;20.55;67.08;102012.50;4962334;28;20233;-76
2023/09/03 08:59:15;;;;;;;5.90;4.40;;;;;;;20.56;67.52;102004.09;4962610;28;20216;-76
2023/09/03 09:01:43;;;;;;;7.23;4.40;;;;;;;20.66;67.64;101998.13;4964625;28;20206;-76
2023/09/03 09:04:10;;;;;;;5.23;4.70;;;;;;;20.77;67.08;101991.00;4963946;28;20620;-76
2023/09/03 09:06:38;;;;;;;5.43;3.80;;;;;;;20.85;66.13;101983.84;4963064;28;20213;-74
2023/09/03 09:09:05;;;;;;;5.47;3.90;;;;;;;20.88;64.12;101989.25;4965010;28;20208;-73
2023/09/03 09:11:40;;;;;;;4.53;3.25;;;;;;;20.93;64.14;101988.19;4964406;28;20216;-73
2023/09/03 09:14:18;;;;;;;5.90;3.60;;;;;;;21.02;64.80;101980.66;4962908;28;20208;-74
2023/09/03 09:16:44;;;;;;;4.03;3.10;;;;;;;21.13;65.17;101985.06;4963629;28;20666;-74
2023/09/03 09:19:10;;;;;;;3.53;2.77;;;;;;;21.24;62.19;101999.41;4964249;28;20210;-74
2023/09/03 09:21:37;;;;;;;5.40;2.58;;;;;;;21.26;63.30;102009.81;4964866;28;20216;-74
2023/09/03 09:24:05;;;;;;;5.50;2.72;;;;;;;21.29;62.46;102007.16;4962485;28;20793;-74
2023/09/03 09:26:33;;;;;;;3.75;2.50;;;;;;;21.29;63.11;102009.84;4962777;28;20208;-73
2023/09/03 09:29:01;;;;;;;5.68;2.75;;;;;;;21.31;61.18;102006.81;4962061;28;20213;-74
2023/09/03 09:31:29;;;;;;;2.67;2.45;;;;;;;21.32;64.40;102014.47;4962896;28;20209;-74
2023/09/03 09:33:55;;;;;;;4.15;2.92;;;;;;;21.28;62.22;102012.91;4962822;28;20897;-74
2023/09/03 09:36:22;;;;;;;3.95;2.85;;;;;;;21.30;62.30;102005.25;4962333;28;20209;-74
2023/09/03 09:38:48;;;;;;;5.20;3.08;;;;;;;21.26;62.95;102004.44;4961622;28;20221;-74
2023/09/03 09:41:22;;;;;;;4.80;2.90;;;;;;;21.30;61.56;101997.97;4961155;28;21029;-74
2023/09/03 09:43:51;;;;;;;3.17;2.88;;;;;;;21.34;64.97;101998.00;4961362;28;20273;-74
2023/09/03 09:46:26;;;;;;;6.03;2.92;;;;;;;21.33;61.03;101988.41;4960537;28;20212;-74
2023/09/03 09:48:55;;;;;;;4.32;3.25;;;;;;;21.36;61.66;101982.31;4958632;28;20325;-74
2023/09/03 09:51:21;;;;;;;3.15;2.80;;;;;;;21.44;64.46;101983.94;4962578;28;20209;-74
2023/09/03 09:53:55;;;;;;;4.38;2.90;;;;;;;21.47;61.04;101983.97;4961831;28;20205;-74
2023/09/03 09:56:21;;;;;;;4.97;3.13;;;;;;;21.47;60.85;101978.59;4959783;28;20296;-74
2023/09/03 09:58:47;;;;;;;5.28;2.50;;;;;;;21.47;61.25;101994.72;4962889;28;20231;-72
2023/09/03 10:01:15;;;;;;;5.20;2.38;;;;;;;21.49;60.38;101986.31;4960561;28;20905;-72
2023/09/03 10:03:42;;;;;;;4.05;2.80;;;;;;;21.52;60.00;101988.28;4964101;28;20206;-72
2023/09/03 10:06:10;;;;;;;5.38;2.72;;;;;;;21.49;59.18;101989.78;4963396;28;20706;-72
2023/09/03 10:08:36;;;;;;;3.33;2.30;;;;;;;21.57;62.20;101979.91;4964465;28;20226;-72
2023/09/03 10:11:03;;;;;;;4.80;2.78;;;;;;;21.65;61.31;101986.88;4963638;28;20332;-72
2023/09/03 10:13:29;;;;;;;6.25;2.25;;;;;;;21.66;60.09;101988.44;4964636;28;20209;-72
2023/09/03 10:15:57;;;;;;;4.38;2.30;;;;;;;21.67;58.70;101990.75;4964021;28;20224;-72
2023/09/03 10:18:27;;;;;;;4.85;1.95;;;;;;;21.67;58.65;101985.38;4962155;28;20225;-72
2023/09/03 10:20:56;;;;;;;3.35;2.00;;;;;;;21.70;55.48;101994.66;4962419;28;21242;-72
2023/09/03 10:23:26;;;;;;;2.35;1.75;;;;;;;21.78;59.99;101990.94;4960889;28;21167;-72
2023/09/03 10:25:54;;;;;;;3.33;1.77;;;;;;;21.86;58.57;101993.34;4960683;28;20682;-72
2023/09/03 10:28:24;;;;;;;4.30;1.95;;;;;;;21.92;57.00;101989.16;4959788;28;20221;-72
2023/09/03 10:30:54;;;;;;;5.00;1.67;;;;;;;21.95;56.34;101996.50;4960424;28;20213;-72
2023/09/03 10:33:20;;;;;;;2.65;2.00;;;;;;;22.00;57.56;101990.78;4959327;28;20798;-72
2023/09/03 10:36:12;;;;;;;4.50;2.10;;;;;;;22.00;56.22;101995.41;4957746;28;20901;-72
2023/09/03 10:38:38;;;;;;;2.47;1.88;;;;;;;22.03;55.20;101998.13;4956572;28;20256;-72
2023/09/03 10:41:19;;;;;;;4.82;1.95;;;;;;;22.11;58.31;101998.97;4958939;28;20213;-72
2023/09/03 10:43:46;;;;;;;3.33;1.60;;;;;;;22.15;53.35;101999.78;4959603;28;20216;-72
2023/09/03 10:46:13;;;;;;;3.13;1.73;;;;;;;22.29;55.46;101999.91;4958812;28;20205;-72
2023/09/03 10:48:40;;;;;;;2.13;1.75;;;;;;;22.40;55.01;101996.19;4957857;28;20302;-72
2023/09/03 10:51:07;;;;;;;3.28;2.10;;;;;;;22.50;56.62;101994.78;4959841;28;20361;-72
2023/09/03 10:53:36;;;;;;;4.32;1.60;;;;;;;22.52;54.92;101995.16;4958712;28;20264;-72
2023/09/03 10:56:14;;;;;;;1.55;1.40;;;;;;;22.58;53.01;102004.44;4955936;28;20198;-72
2023/09/03 10:58:54;;;;;;;1.45;1.35;;;;;;;22.65;52.28;102007.97;4956841;28;20294;-72
2023/09/03 11:01:22;;;;;;;3.75;1.50;;;;;;;22.67;56.03;102010.31;4956065;28;21855;-72
2023/09/03 11:03:52;;;;;;;2.30;1.75;;;;;;;22.70;52.51;102004.94;4958297;28;20216;-72
2023/09/03 11:06:19;;;;;;;4.60;1.70;;;;;;;22.73;51.14;102000.72;4954721;28;20284;-72
2023/09/03 11:08:47;;;;;;;1.85;1.45;;;;;;;22.72;52.06;101999.19;4957327;28;21342;-72
2023/09/03 11:11:21;;;;;;;3.10;1.75;;;;;;;22.69;50.38;102008.78;4959924;28;20213;-72
2023/09/03 11:13:52;;;;;;;2.55;1.73;;;;;;;22.66;51.25;101998.75;4958927;28;20216;-72
2023/09/03 11:16:18;;;;;;;2.35;1.67;;;;;;;22.68;51.19;102001.84;4957492;28;20205;-72
2023/09/03 11:18:49;;;;;;;1.30;1.17;;;;;;;22.64;52.23;102013.72;4957836;28;20221;-72
2023/09/03 11:21:16;;;;;;;2.85;1.50;;;;;;;22.66;51.91;102009.50;4958698;28;20209;-72